O'Brien, Florida
Current Conditions -  °F | °C
As of 1:15 PM on Friday 31 Oct 2014 (Local Time) from K24J Reporting Station
Clear Clear  
Wind Chill: 72°   Ceiling: Unl
Heat Index: 72°   Visibility: 2mi
Dew Point: 45°   Wind: 6mph
Humidity: 38%   Direction: 280°W
Pressure: 29.9"   Gusts: 16mph
Location:  30.04°N, 82.94°W
Report Text: K24J 311715Z AUTO 28005G14KT 2SM CLR 22/07 A2990 RMK AO1
Loading
Personal Weather Stations






























Interactive Weather Map
Tropical Storm Tracking
New forecast layout! Learn more

10-Day Weather Forecast

Advertisements
Track Severe Weather on mobile